| time (UTC) | temp F | wind direction | speed MPH | gust MPH | rain 1hr in | rain 24hr in | rain mn in | humidity % | barometer mb |
| 20260505210702 | 68 | 165 | 7.0 | 22.0 | 0.00 | 0.04 | 0.04 | 30 | 1016.2 |
| 20260505210159 | 68 | 160 | 9.0 | 22.0 | 0.00 | 0.04 | 0.04 | 32 | 1016.4 |
| 20260505205657 | 68 | 255 | 9.0 | 15.0 | 0.00 | 0.04 | 0.04 | 32 | 1016.3 |
| 20260505205154 | 67 | 159 | 13.0 | 21.0 | 0.00 | 0.04 | 0.04 | 34 | 1016.4 |
| 20260505204651 | 67 | 170 | 8.0 | 23.0 | 0.00 | 0.04 | 0.04 | 33 | 1016.5 |
| 20260505204149 | 67 | 127 | 8.0 | 22.0 | 0.00 | 0.04 | 0.04 | 33 | 1016.4 |
| 20260505203646 | 67 | 123 | 7.0 | 23.0 | 0.00 | 0.04 | 0.04 | 34 | 1016.4 |
| 20260505203142 | 66 | 130 | 9.0 | 21.0 | 0.00 | 0.04 | 0.04 | 34 | 1016.5 |
| 20260505202638 | 67 | 157 | 15.0 | 21.0 | 0.00 | 0.04 | 0.04 | 35 | 1016.6 |
| 20260505202134 | 67 | 164 | 15.0 | 22.0 | 0.00 | 0.04 | 0.04 | 35 | 1016.6 |
| 20260505201631 | 67 | 137 | 13.0 | 28.0 | 0.00 | 0.04 | 0.04 | 37 | 1016.4 |
| 20260505201129 | 66 | 119 | 12.0 | 20.0 | 0.00 | 0.04 | 0.04 | 38 | 1016.5 |
| 20260505200627 | 66 | 138 | 19.0 | 21.0 | 0.00 | 0.04 | 0.04 | 41 | 1016.6 |
| 20260505200124 | 67 | 172 | 6.0 | 26.0 | 0.00 | 0.04 | 0.04 | 40 | 1017.0 |
| 20260505195620 | 66 | 145 | 7.0 | 17.0 | 0.00 | 0.04 | 0.04 | 41 | 1017.0 |
| 20260505195117 | 67 | 161 | 13.0 | 28.0 | 0.00 | 0.04 | 0.04 | 39 | 1017.0 |
| 20260505194614 | 65 | 188 | 4.0 | 21.0 | 0.00 | 0.04 | 0.04 | 42 | 1017.1 |
| 20260505194110 | 66 | 160 | 10.0 | 20.0 | 0.00 | 0.04 | 0.04 | 42 | 1017.1 |
| 20260505193607 | 66 | 198 | 17.0 | 18.0 | 0.00 | 0.04 | 0.04 | 42 | 1017.2 |
| 20260505193104 | 64 | 174 | 8.0 | 14.0 | 0.00 | 0.04 | 0.04 | 48 | 1017.1 |
| 20260505192603 | 64 | 169 | 12.0 | 13.0 | 0.00 | 0.04 | 0.04 | 46 | 1017.3 |
| 20260505192100 | 64 | 149 | 4.0 | 18.0 | 0.00 | 0.04 | 0.04 | 46 | 1017.2 |
| 20260505191558 | 66 | 149 | 11.0 | 22.0 | 0.00 | 0.04 | 0.04 | 44 | 1017.6 |
| 20260505191055 | 64 | 160 | 16.0 | 19.0 | 0.00 | 0.04 | 0.04 | 45 | 1017.5 |
| 20260505190550 | 65 | 164 | 11.0 | 22.0 | 0.00 | 0.04 | 0.04 | 44 | 1017.8 |
| 20260505190046 | 65 | 179 | 15.0 | 27.0 | 0.00 | 0.04 | 0.04 | 45 | 1017.5 |
| 20260505185543 | 66 | 151 | 7.0 | 21.0 | 0.00 | 0.04 | 0.04 | 44 | 1017.7 |
| 20260505185039 | 65 | 148 | 8.0 | 15.0 | 0.00 | 0.04 | 0.04 | 44 | 1017.8 |
| 20260505184536 | 65 | 115 | 7.0 | 17.0 | 0.00 | 0.04 | 0.04 | 46 | 1017.6 |
| 20260505184033 | 65 | 151 | 9.0 | 24.0 | 0.00 | 0.04 | 0.04 | 46 | 1017.8 |
| 20260505183530 | 65 | 187 | 11.0 | 18.0 | 0.00 | 0.04 | 0.04 | 46 | 1018.0 |
| 20260505183027 | 64 | 156 | 13.0 | 17.0 | 0.00 | 0.04 | 0.04 | 48 | 1017.7 |
| 20260505182523 | 65 | 193 | 7.0 | 11.0 | 0.00 | 0.04 | 0.04 | 48 | 1017.8 |
| 20260505182020 | 64 | 154 | 9.0 | 19.0 | 0.00 | 0.04 | 0.04 | 49 | 1017.8 |
| 20260505181517 | 63 | 160 | 17.0 | 23.0 | 0.00 | 0.04 | 0.04 | 49 | 1018.2 |
| 20260505181015 | 63 | 158 | 11.0 | 22.0 | 0.00 | 0.04 | 0.04 | 49 | 1018.3 |
| 20260505180510 | 63 | 145 | 9.0 | 22.0 | 0.00 | 0.04 | 0.04 | 50 | 1018.0 |
| 20260505180008 | 64 | 146 | 8.0 | 19.0 | 0.00 | 0.04 | 0.04 | 50 | 1018.0 |
| 20260505175503 | 63 | 160 | 9.0 | 17.0 | 0.00 | 0.04 | 0.04 | 51 | 1018.2 |
| 20260505175000 | 63 | 163 | 6.0 | 19.0 | 0.00 | 0.04 | 0.04 | 52 | 1018.3 |
| 20260505174457 | 63 | 156 | 12.0 | 16.0 | 0.00 | 0.04 | 0.04 | 51 | 1018.0 |
| 20260505173953 | 63 | 146 | 4.0 | 10.0 | 0.00 | 0.04 | 0.04 | 52 | 1018.2 |
| 20260505173450 | 62 | 137 | 12.0 | 14.0 | 0.00 | 0.04 | 0.04 | 53 | 1018.3 |
| 20260505172947 | 63 | 123 | 15.0 | 21.0 | 0.00 | 0.04 | 0.04 | 52 | 1018.0 |
| 20260505172445 | 62 | 212 | 6.0 | 12.0 | 0.00 | 0.04 | 0.04 | 53 | 1018.2 |
| 20260505171944 | 61 | 203 | 7.0 | 11.0 | 0.00 | 0.04 | 0.04 | 55 | 1018.0 |
| 20260505171441 | 61 | 181 | 5.0 | 9.0 | 0.00 | 0.04 | 0.04 | 56 | 1018.2 |
| 20260505170938 | 60 | 160 | 3.0 | 11.0 | 0.00 | 0.04 | 0.04 | 57 | 1018.3 |
| 20260505170435 | 59 | 154 | 9.0 | 13.0 | 0.00 | 0.04 | 0.04 | 59 | 1018.2 |
| 20260505165930 | 59 | 157 | 6.0 | 15.0 | 0.00 | 0.04 | 0.04 | 58 | 1018.4 |
| 20260505165426 | 59 | 146 | 6.0 | 13.0 | 0.00 | 0.04 | 0.04 | 59 | 1018.4 |
| 20260505164921 | 59 | 147 | 7.0 | 14.0 | 0.00 | 0.04 | 0.04 | 59 | 1018.3 |
| 20260505164418 | 60 | 154 | 6.0 | 11.0 | 0.00 | 0.04 | 0.04 | 58 | 1018.0 |
| 20260505163916 | 59 | 135 | 7.0 | 18.0 | 0.00 | 0.04 | 0.04 | 61 | 1017.8 |
| 20260505163415 | 59 | 218 | 7.0 | 9.0 | 0.00 | 0.04 | 0.04 | 62 | 1017.9 |
| 20260505162914 | 58 | 164 | 9.0 | 14.0 | 0.00 | 0.04 | 0.04 | 64 | 1018.0 |
| 20260505162409 | 58 | 138 | 8.0 | 14.0 | 0.00 | 0.04 | 0.04 | 63 | 1017.9 |
| 20260505161907 | 60 | 127 | 6.0 | 11.0 | 0.00 | 0.04 | 0.04 | 62 | 1018.2 |
| 20260505161403 | 59 | 161 | 6.0 | 17.0 | 0.00 | 0.04 | 0.04 | 63 | 1017.8 |
| 20260505160900 | 59 | 238 | 6.0 | 9.0 | 0.00 | 0.04 | 0.04 | 63 | 1017.7 |
| 20260505160359 | 58 | 154 | 3.0 | 13.0 | 0.00 | 0.04 | 0.04 | 63 | 1017.7 |
| 20260505153337 | 56 | 207 | 3.0 | 15.0 | 0.00 | 0.04 | 0.04 | 69 | 1017.8 |
| 20260505152834 | 57 | 201 | 4.0 | 9.0 | 0.00 | 0.04 | 0.04 | 71 | 1017.9 |
| 20260505152331 | 56 | 172 | 2.0 | 10.0 | 0.00 | 0.04 | 0.04 | 72 | 1017.7 |
| 20260505151826 | 56 | 308 | 3.0 | 15.0 | 0.00 | 0.04 | 0.04 | 72 | 1017.6 |
| 20260505151323 | 55 | 118 | 6.0 | 6.0 | 0.00 | 0.04 | 0.04 | 74 | 1017.6 |
| 20260505150820 | 55 | 102 | 3.0 | 7.0 | 0.00 | 0.04 | 0.04 | 76 | 1017.6 |
| 20260505150317 | 55 | 186 | 2.0 | 8.0 | 0.00 | 0.04 | 0.04 | 76 | 1017.3 |
| 20260505140241 | 52 | 148 | 3.0 | 4.0 | 0.00 | 0.04 | 0.04 | 88 | 1017.3 |
| 20260505130205 | 51 | 108 | 1.0 | 2.0 | 0.02 | 0.02 | 0.02 | 90 | 1016.4 |
| 20260505124655 | 51 | 103 | 2.0 | 3.0 | 0.02 | 0.01 | 0.01 | 87 | 1017.0 |
| 20260505124151 | 51 | 87 | 3.0 | 3.0 | 0.00 | 0.00 | 0.00 | 87 | 1016.9 |
| 20260505123647 | 51 | 129 | 2.0 | 2.0 | 0.00 | 0.00 | 0.00 | 87 | 1016.9 |
| 20260505123145 | 51 | 131 | 0.0 | 3.0 | 0.00 | 0.00 | 0.00 | 87 | 1016.8 |
| 20260505122641 | 51 | 116 | 3.0 | 4.0 | 0.00 | 0.00 | 0.00 | 87 | 1016.4 |
| 20260505122138 | 51 | 110 | 4.0 | 5.0 | 0.00 | 0.00 | 0.00 | 87 | 1016.5 |
| 20260505121635 | 51 | 95 | 3.0 | 5.0 | 0.00 | 0.00 | 0.00 | 86 | 1016.3 |
| 20260505121132 | 51 | 86 | 3.0 | 3.0 | 0.00 | 0.00 | 0.00 | 88 | 1016.6 |
| 20260505120627 | 51 | 125 | 3.0 | 4.0 | 0.00 | 0.00 | 0.00 | 89 | 1016.9 |
| 20260505120124 | 51 | 97 | 2.0 | 3.0 | 0.00 | 0.00 | 0.00 | 88 | 1017.0 |
| 20260505115618 | 51 | 115 | 2.0 | 2.0 | 0.00 | 0.00 | 0.00 | 88 | 1017.0 |
| 20260505115116 | 51 | 136 | 1.0 | 2.0 | 0.00 | 0.00 | 0.00 | 88 | 1017.0 |
| 20260505114612 | 51 | 124 | 2.0 | 3.0 | 0.00 | 0.00 | 0.00 | 87 | 1017.0 |
| 20260505114109 | 51 | 119 | 1.0 | 2.0 | 0.00 | 0.00 | 0.00 | 86 | 1017.0 |
| 20260505113605 | 52 | 115 | 2.0 | 2.0 | 0.00 | 0.00 | 0.00 | 83 | 1017.2 |
| 20260505113102 | 52 | 283 | 0.0 | 0.0 | 0.02 | 0.00 | 0.00 | 78 | 1017.1 |
| 20260505112558 | 52 | 246 | 0.0 | 2.0 | 0.00 | 0.00 | 0.00 | 79 | 1017.6 |
| 20260505112056 | 52 | 173 | 0.0 | 1.0 | 0.00 | 0.00 | 0.00 | 81 | 1017.2 |
| 20260505111550 | 51 | 298 | 0.0 | 4.0 | 0.00 | 0.00 | 0.00 | 81 | 1017.6 |
| 20260505111046 | 52 | 227 | 1.0 | 2.0 | 0.00 | 0.00 | 0.00 | 82 | 1017.2 |
| 20260505110543 | 51 | 279 | 1.0 | 3.0 | 0.00 | 0.00 | 0.00 | 83 | 1017.2 |
| 20260505102015 | 52 | 299 | 11.0 | 12.0 | 0.00 | 0.00 | 0.00 | 82 | 1018.4 |
| 20260505101514 | 52 | 316 | 8.0 | 11.0 | 0.00 | 0.00 | 0.00 | 82 | 1018.0 |
| 20260505101010 | 53 | 295 | 6.0 | 13.0 | 0.00 | 0.00 | 0.00 | 81 | 1018.0 |
| 20260505100507 | 53 | 316 | 11.0 | 14.0 | 0.00 | 0.00 | 0.00 | 80 | 1017.9 |
| 20260505100004 | 53 | 312 | 11.0 | 16.0 | 0.00 | 0.00 | 0.00 | 79 | 1018.0 |
| 20260505095500 | 53 | 302 | 8.0 | 12.0 | 0.00 | 0.00 | 0.00 | 78 | 1018.2 |
| 20260505094956 | 53 | 306 | 6.0 | 11.0 | 0.00 | 0.00 | 0.00 | 78 | 1018.4 |
| 20260505094453 | 53 | 280 | 8.0 | 12.0 | 0.00 | 0.00 | 0.00 | 77 | 1018.4 |
| 20260505093949 | 53 | 293 | 9.0 | 13.0 | 0.00 | 0.00 | 0.00 | 77 | 1018.3 |
| 20260505093446 | 54 | 301 | 13.0 | 15.0 | 0.00 | 0.00 | 0.00 | 75 | 1018.4 |
| 20260505092943 | 54 | 314 | 15.0 | 21.0 | 0.00 | 0.00 | 0.00 | 75 | 1017.8 |
| 20260505092441 | 54 | 305 | 15.0 | 17.0 | 0.00 | 0.00 | 0.00 | 74 | 1018.2 |
| 20260505091938 | 54 | 293 | 8.0 | 12.0 | 0.00 | 0.00 | 0.00 | 73 | 1018.6 |
| 20260505091436 | 54 | 311 | 7.0 | 12.0 | 0.00 | 0.00 | 0.00 | 71 | 1018.6 |
| 20260505090933 | 55 | 301 | 6.0 | 8.0 | 0.00 | 0.00 | 0.00 | 70 | 1018.7 |
| 20260505090432 | 55 | 291 | 5.0 | 9.0 | 0.00 | 0.00 | 0.00 | 69 | 1018.7 |
| 20260505085928 | 55 | 285 | 7.0 | 9.0 | 0.00 | 0.00 | 0.00 | 69 | 1018.7 |
| 20260505085426 | 55 | 286 | 8.0 | 9.0 | 0.00 | 0.00 | 0.00 | 69 | 1018.5 |
| 20260505084924 | 55 | 284 | 5.0 | 7.0 | 0.00 | 0.00 | 0.00 | 69 | 1018.7 |
| 20260505084422 | 55 | 288 | 6.0 | 11.0 | 0.00 | 0.00 | 0.00 | 68 | 1018.7 |
| 20260505083920 | 55 | 303 | 6.0 | 11.0 | 0.00 | 0.00 | 0.00 | 68 | 1018.7 |
| 20260505083417 | 55 | 293 | 11.0 | 11.0 | 0.00 | 0.00 | 0.00 | 67 | 1019.0 |
| 20260505082913 | 55 | 287 | 4.0 | 11.0 | 0.00 | 0.00 | 0.00 | 65 | 1019.1 |
| 20260505082409 | 55 | 267 | 8.0 | 13.0 | 0.00 | 0.00 | 0.00 | 63 | 1019.0 |
| 20260505081906 | 55 | 271 | 6.0 | 7.0 | 0.00 | 0.00 | 0.00 | 64 | 1019.0 |
| 20260505081403 | 55 | 263 | 5.0 | 6.0 | 0.00 | 0.00 | 0.00 | 65 | 1018.9 |
| 20260505080900 | 55 | 302 | 5.0 | 8.0 | 0.00 | 0.00 | 0.00 | 65 | 1019.2 |
| 20260505080355 | 55 | 320 | 8.0 | 9.0 | 0.00 | 0.00 | 0.00 | 64 | 1019.0 |
| 20260505075851 | 55 | 299 | 3.0 | 7.0 | 0.00 | 0.00 | 0.00 | 64 | 1019.3 |
| 20260505075348 | 55 | 301 | 7.0 | 11.0 | 0.00 | 0.00 | 0.00 | 62 | 1019.2 |
| 20260505074846 | 55 | 319 | 8.0 | 9.0 | 0.00 | 0.00 | 0.00 | 60 | 1019.6 |
| 20260505074343 | 56 | 267 | 6.0 | 10.0 | 0.00 | 0.00 | 0.00 | 59 | 1019.2 |
| 20260505073840 | 56 | 296 | 4.0 | 11.0 | 0.00 | 0.00 | 0.00 | 58 | 1019.3 |
| 20260505073338 | 56 | 286 | 4.0 | 10.0 | 0.00 | 0.00 | 0.00 | 56 | 1019.4 |
| 20260505072834 | 56 | 298 | 8.0 | 12.0 | 0.00 | 0.00 | 0.00 | 54 | 1019.4 |
| 20260505072331 | 56 | 289 | 6.0 | 7.0 | 0.00 | 0.00 | 0.00 | 53 | 1019.7 |
| 20260505071827 | 56 | 279 | 5.0 | 7.0 | 0.00 | 0.00 | 0.00 | 51 | 1019.1 |
| 20260505071323 | 57 | 276 | 3.0 | 5.0 | 0.00 | 0.00 | 0.00 | 48 | 1019.7 |
| 20260505070822 | 57 | 279 | 3.0 | 6.0 | 0.00 | 0.00 | 0.00 | 47 | 1019.6 |
| 20260505070318 | 57 | 283 | 3.0 | 6.0 | 0.00 | 0.00 | 0.00 | 47 | 1019.3 |
| 20260505065813 | 57 | 274 | 5.0 | 6.0 | 0.00 | 0.00 | 0.00 | 47 | 1019.3 |
| 20260505065310 | 57 | 287 | 7.0 | 7.0 | 0.00 | 0.00 | 0.00 | 47 | 1019.3 |
| 20260505064807 | 57 | 300 | 7.0 | 7.0 | 0.00 | 0.00 | 0.00 | 46 | 1019.7 |
| 20260505064304 | 57 | 301 | 5.0 | 8.0 | 0.00 | 0.00 | 0.00 | 45 | 1019.3 |
| 20260505063802 | 57 | 297 | 3.0 | 6.0 | 0.00 | 0.00 | 0.00 | 45 | 1019.6 |
| 20260505063258 | 57 | 277 | 5.0 | 6.0 | 0.00 | 0.00 | 0.00 | 45 | 1019.8 |
| 20260505062755 | 57 | 293 | 7.0 | 8.0 | 0.00 | 0.00 | 0.00 | 45 | 1019.8 |
| 20260505062252 | 57 | 261 | 4.0 | 7.0 | 0.00 | 0.00 | 0.00 | 45 | 1019.9 |
| 20260505061749 | 57 | 253 | 5.0 | 7.0 | 0.00 | 0.00 | 0.00 | 44 | 1019.8 |
| 20260505061247 | 57 | 276 | 4.0 | 6.0 | 0.00 | 0.00 | 0.00 | 44 | 1019.9 |
| 20260505060744 | 57 | 251 | 3.0 | 4.0 | 0.00 | 0.00 | 0.00 | 45 | 1019.4 |
| 20260505060241 | 57 | 264 | 2.0 | 3.0 | 0.00 | 0.00 | 0.00 | 44 | 1019.6 |
| 20260505055736 | 57 | 266 | 2.0 | 4.0 | 0.00 | 0.00 | 0.00 | 44 | 1019.4 |
| 20260505055233 | 57 | 255 | 3.0 | 6.0 | 0.00 | 0.00 | 0.00 | 44 | 1019.6 |
| 20260505054730 | 57 | 267 | 3.0 | 5.0 | 0.00 | 0.00 | 0.00 | 44 | 1019.3 |
| 20260505054228 | 57 | 291 | 3.0 | 7.0 | 0.00 | 0.00 | 0.00 | 44 | 1019.4 |
| 20260505053726 | 56 | 297 | 6.0 | 9.0 | 0.00 | 0.00 | 0.00 | 45 | 1019.9 |
| 20260505053222 | 56 | 289 | 7.0 | 9.0 | 0.00 | 0.00 | 0.00 | 45 | 1019.9 |
| 20260505052720 | 56 | 259 | 2.0 | 7.0 | 0.00 | 0.00 | 0.00 | 46 | 1020.0 |
| 20260505052216 | 56 | 276 | 4.0 | 7.0 | 0.00 | 0.00 | 0.00 | 45 | 1019.9 |
| 20260505051714 | 57 | 288 | 4.0 | 9.0 | 0.00 | 0.00 | 0.00 | 45 | 1019.9 |
| 20260505051212 | 57 | 287 | 8.0 | 10.0 | 0.00 | 0.00 | 0.00 | 44 | 1019.9 |
| 20260505050709 | 56 | 275 | 7.0 | 9.0 | 0.00 | 0.00 | 0.00 | 45 | 1019.8 |
| 20260505050207 | 56 | 264 | 7.0 | 11.0 | 0.00 | 0.00 | 0.00 | 45 | 1019.7 |
| 20260505041637 | 57 | 290 | 14.0 | 14.0 | 0.00 | 0.00 | 0.00 | 45 | 1019.3 |
| 20260505041134 | 57 | 303 | 16.0 | 16.0 | 0.00 | 0.00 | 0.00 | 45 | 1019.1 |
| 20260505040631 | 57 | 286 | 8.0 | 17.0 | 0.00 | 0.00 | 0.00 | 45 | 1019.8 |
| 20260505040128 | 57 | 281 | 10.0 | 15.0 | 0.00 | 0.00 | 0.00 | 45 | 1020.0 |
| 20260505035624 | 57 | 288 | 7.0 | 15.0 | 0.00 | 0.00 | 0.00 | 45 | 1019.9 |
| 20260505035121 | 57 | 265 | 7.0 | 16.0 | 0.00 | 0.00 | 0.00 | 44 | 1019.9 |
| 20260505034618 | 57 | 297 | 8.0 | 17.0 | 0.00 | 0.00 | 0.00 | 44 | 1019.9 |
| 20260505034114 | 58 | 293 | 15.0 | 20.0 | 0.00 | 0.00 | 0.00 | 43 | 1019.7 |
| 20260505033611 | 58 | 308 | 11.0 | 18.0 | 0.00 | 0.00 | 0.00 | 43 | 1019.7 |
| 20260505033110 | 58 | 272 | 18.0 | 20.0 | 0.00 | 0.00 | 0.00 | 43 | 1019.6 |
| 20260505032607 | 59 | 301 | 18.0 | 23.0 | 0.00 | 0.00 | 0.00 | 42 | 1019.3 |
| 20260505032103 | 59 | 280 | 9.0 | 12.0 | 0.00 | 0.00 | 0.00 | 42 | 1019.6 |
| 20260505031601 | 59 | 313 | 13.0 | 18.0 | 0.00 | 0.00 | 0.00 | 42 | 1019.0 |
| 20260505031057 | 60 | 288 | 11.0 | 16.0 | 0.00 | 0.00 | 0.00 | 40 | 1019.2 |
| 20260505030554 | 60 | 281 | 9.0 | 16.0 | 0.00 | 0.00 | 0.00 | 39 | 1019.1 |
| 20260505030050 | 60 | 293 | 9.0 | 14.0 | 0.00 | 0.00 | 0.00 | 38 | 1018.9 |
| 20260505025546 | 60 | 302 | 7.0 | 16.0 | 0.00 | 0.00 | 0.00 | 38 | 1018.6 |
| 20260505025045 | 61 | 297 | 11.0 | 17.0 | 0.00 | 0.00 | 0.00 | 37 | 1018.4 |
| 20260505024541 | 61 | 297 | 13.0 | 15.0 | 0.00 | 0.00 | 0.00 | 37 | 1018.6 |
| 20260505024038 | 61 | 271 | 9.0 | 19.0 | 0.00 | 0.00 | 0.00 | 36 | 1018.5 |
| 20260505023536 | 62 | 307 | 9.0 | 14.0 | 0.00 | 0.00 | 0.00 | 35 | 1018.5 |
| 20260505023033 | 62 | 284 | 8.0 | 13.0 | 0.00 | 0.00 | 0.00 | 34 | 1018.3 |
| 20260505022531 | 62 | 289 | 8.0 | 13.0 | 0.00 | 0.00 | 0.00 | 33 | 1018.2 |
| 20260505022028 | 63 | 297 | 6.0 | 14.0 | 0.00 | 0.00 | 0.00 | 32 | 1018.2 |
| 20260505021524 | 63 | 295 | 8.0 | 14.0 | 0.00 | 0.00 | 0.00 | 31 | 1018.0 |
| 20260505021020 | 63 | 288 | 9.0 | 17.0 | 0.00 | 0.00 | 0.00 | 31 | 1018.5 |
| 20260505020515 | 64 | 276 | 8.0 | 16.0 | 0.00 | 0.00 | 0.00 | 31 | 1018.2 |
| 20260505020013 | 64 | 279 | 7.0 | 15.0 | 0.00 | 0.00 | 0.00 | 30 | 1018.4 |
| 20260505015509 | 64 | 296 | 6.0 | 12.0 | 0.00 | 0.00 | 0.00 | 30 | 1018.3 |
| 20260505015006 | 65 | 283 | 8.0 | 13.0 | 0.00 | 0.00 | 0.00 | 29 | 1018.0 |
| 20260505014503 | 65 | 296 | 10.0 | 14.0 | 0.00 | 0.00 | 0.00 | 29 | 1018.2 |
| 20260505014001 | 65 | 271 | 8.0 | 17.0 | 0.00 | 0.00 | 0.00 | 29 | 1018.0 |
| 20260505013457 | 66 | 301 | 7.0 | 14.0 | 0.00 | 0.00 | 0.00 | 29 | 1017.8 |
| 20260505012954 | 66 | 269 | 13.0 | 16.0 | 0.00 | 0.00 | 0.00 | 28 | 1018.0 |
| 20260505012453 | 67 | 298 | 13.0 | 15.0 | 0.00 | 0.00 | 0.00 | 28 | 1017.9 |
| 20260505011949 | 68 | 283 | 5.0 | 22.0 | 0.00 | 0.00 | 0.00 | 28 | 1018.2 |
| 20260505011445 | 68 | 285 | 12.0 | 19.0 | 0.00 | 0.00 | 0.00 | 28 | 1018.2 |
| 20260505010942 | 68 | 311 | 11.0 | 17.0 | 0.00 | 0.00 | 0.00 | 28 | 1018.3 |
| 20260505010438 | 68 | 305 | 13.0 | 20.0 | 0.00 | 0.00 | 0.00 | 28 | 1018.0 |
| 20260505005934 | 68 | 314 | 18.0 | 21.0 | 0.00 | 0.00 | 0.00 | 27 | 1018.3 |
| 20260505005431 | 69 | 274 | 10.0 | 13.0 | 0.00 | 0.00 | 0.00 | 26 | 1018.3 |
| 20260505004929 | 70 | 212 | 9.0 | 12.0 | 0.00 | 0.00 | 0.00 | 25 | 1017.9 |
| 20260505004425 | 70 | 252 | 6.0 | 12.0 | 0.00 | 0.00 | 0.00 | 26 | 1018.2 |
| 20260505003922 | 70 | 229 | 9.0 | 12.0 | 0.00 | 0.00 | 0.00 | 26 | 1018.4 |
| 20260505003419 | 70 | 233 | 9.0 | 18.0 | 0.00 | 0.00 | 0.00 | 26 | 1018.3 |
| 20260505002915 | 71 | 209 | 5.0 | 16.0 | 0.00 | 0.00 | 0.00 | 26 | 1018.4 |
| 20260505002412 | 71 | 240 | 11.0 | 16.0 | 0.00 | 0.00 | 0.00 | 26 | 1018.3 |
| 20260505001910 | 70 | 247 | 8.0 | 20.0 | 0.00 | 0.00 | 0.00 | 26 | 1018.0 |
| 20260505001407 | 72 | 257 | 11.0 | 17.0 | 0.00 | 0.00 | 0.00 | 25 | 1018.0 |
| 20260505000904 | 71 | 242 | 10.0 | 22.0 | 0.00 | 0.00 | 0.00 | 24 | 1018.3 |
| 20260505000402 | 71 | 266 | 8.0 | 19.0 | 0.00 | 0.00 | 0.00 | 25 | 1018.4 |
| 20260504235859 | 71 | 228 | 9.0 | 17.0 | 0.00 | 0.00 | 0.00 | 25 | 1018.5 |
| 20260504235356 | 71 | 243 | 10.0 | 15.0 | 0.00 | 0.00 | 0.00 | 24 | 1018.3 |
| 20260504234852 | 71 | 234 | 13.0 | 18.0 | 0.00 | 0.00 | 0.00 | 24 | 1018.3 |
| 20260504234350 | 71 | 271 | 9.0 | 24.0 | 0.00 | 0.00 | 0.00 | 24 | 1018.2 |
| 20260504233846 | 71 | 205 | 6.0 | 11.0 | 0.00 | 0.00 | 0.00 | 23 | 1018.2 |
| 20260504233342 | 71 | 250 | 12.0 | 20.0 | 0.00 | 0.00 | 0.00 | 23 | 1018.4 |
| 20260504232839 | 71 | 235 | 5.0 | 17.0 | 0.00 | 0.00 | 0.00 | 23 | 1018.3 |
| 20260504232336 | 71 | 238 | 16.0 | 19.0 | 0.00 | 0.00 | 0.00 | 23 | 1018.4 |
| 20260504231833 | 71 | 275 | 11.0 | 14.0 | 0.00 | 0.00 | 0.00 | 22 | 1018.4 |
| 20260504231329 | 71 | 259 | 15.0 | 24.0 | 0.00 | 0.00 | 0.00 | 22 | 1018.4 |
| 20260504230825 | 71 | 240 | 10.0 | 15.0 | 0.00 | 0.00 | 0.00 | 21 | 1018.2 |
| 20260504230323 | 71 | 251 | 16.0 | 18.0 | 0.00 | 0.00 | 0.00 | 21 | 1018.0 |
| 20260504225822 | 71 | 265 | 20.0 | 20.0 | 0.00 | 0.00 | 0.00 | 21 | 1018.4 |
| 20260504225318 | 72 | 233 | 16.0 | 17.0 | 0.00 | 0.00 | 0.00 | 20 | 1018.2 |
| 20260504224815 | 72 | 223 | 14.0 | 18.0 | 0.00 | 0.00 | 0.00 | 20 | 1018.3 |
| 20260504224312 | 71 | 234 | 10.0 | 21.0 | 0.00 | 0.00 | 0.00 | 19 | 1018.4 |
| 20260504223809 | 71 | 248 | 15.0 | 20.0 | 0.00 | 0.00 | 0.00 | 19 | 1018.3 |
| 20260504223304 | 72 | 251 | 11.0 | 20.0 | 0.00 | 0.00 | 0.00 | 18 | 1018.3 |
| 20260504222801 | 72 | 232 | 18.0 | 24.0 | 0.00 | 0.00 | 0.00 | 19 | 1018.6 |
| 20260504222258 | 72 | 246 | 12.0 | 17.0 | 0.00 | 0.00 | 0.00 | 20 | 1018.4 |
| 20260504221756 | 73 | 235 | 10.0 | 15.0 | 0.00 | 0.00 | 0.00 | 21 | 1018.5 |
| 20260504221253 | 72 | 265 | 7.0 | 23.0 | 0.00 | 0.00 | 0.00 | 21 | 1018.6 |
| 20260504220749 | 73 | 211 | 7.0 | 23.0 | 0.00 | 0.00 | 0.00 | 21 | 1018.6 |
| 20260504220246 | 73 | 249 | 13.0 | 19.0 | 0.00 | 0.00 | 0.00 | 20 | 1018.4 |
| 20260504215744 | 73 | 228 | 15.0 | 22.0 | 0.00 | 0.00 | 0.00 | 21 | 1018.6 |
| 20260504215240 | 73 | 233 | 8.0 | 14.0 | 0.00 | 0.00 | 0.00 | 21 | 1018.5 |
| 20260504214736 | 73 | 230 | 6.0 | 14.0 | 0.00 | 0.00 | 0.00 | 21 | 1018.6 |
| 20260504214233 | 73 | 259 | 11.0 | 20.0 | 0.00 | 0.00 | 0.00 | 20 | 1018.9 |
| 20260504213730 | 73 | 229 | 14.0 | 24.0 | 0.00 | 0.00 | 0.00 | 20 | 1018.6 |
| 20260504213226 | 73 | 217 | 10.0 | 21.0 | 0.00 | 0.00 | 0.00 | 19 | 1018.9 |
| 20260504212723 | 74 | 233 | 11.0 | 20.0 | 0.00 | 0.00 | 0.00 | 18 | 1018.7 |
| 20260504212220 | 75 | 264 | 12.0 | 17.0 | 0.00 | 0.00 | 0.00 | 18 | 1018.7 |
| 20260504211717 | 73 | 227 | 10.0 | 21.0 | 0.00 | 0.00 | 0.00 | 19 | 1018.5 |
| 20260504211213 | 74 | 208 | 9.0 | 16.0 | 0.00 | 0.00 | 0.00 | 20 | 1018.9 |